Ketchikan International Airport
PAKT : now visible

Airfield :











YOU CAN JOIN US ON...

 
LOGIN :

Register | Disclaimer

   EN    FR    IT 

 









Legend :    VFR   Marginal VFR   IFR   Intensive IFR   Very Intensive IFR
Visi :
Ceiling :
>= 8 km
>= 3000ft
5 to 8 km
1000 to 3000 ft
1500m to 5 km
500 to 1000 ft
800 to 1500m
200 to 500 ft
< 800m
< 200 ft
Symbols :   Thunderstorms  Fog  Heavy snow  Heavy precipitations  Wind > 20 kt






- Airport Elevation : 89 ft
- IATA code : KTN


PAKT - Ketchikan International

EXPIRED METARs :
  • 051753Z 00000KT 10SM CLR M01/M01 A3009 RMK SLP192 HARBOR WIND 15005KT FOG BANK E T10061011 10017 21011 53005 VIA AUTODIAL
  • 051654Z 15003KT 10SM FEW006 00/00 A3009 RMK HARBOR WIND 04005KT FOG BANK E T00000000 VIA AUTODIAL

TAF PAKT
Valid from the 05 at 18:00 until the 06 at 18:00 UTC


051721Z 0518/0618 VRB03KT P6SM BKN200
TEMPO 0518/0519 6SM BR FEW004 OVC200
FM060600 00000KT 1SM BR SCT002 AMD LTD TO CLD VIS AND WIND 0606/0615



MET'MAP, your aeronautical weather chart ! - Copyright ORBIFLY December 2007 - Disclaimer

ORBIFLY MET'MAP TEAM :

Programming & Development : Alexandra Zaïnal
Concept & original design : Baudouin d'Aumeries
Assistance for programming : Marc-Olivier Méhu
Technical & hardware support : Manuel Goepfert

Contact : metmap@orbifly.com




SOURCES & CREDITS :

   NOAA       Earth
Advisory